Leesburg, FL (34748)

3:48 PM EDT on August 20, 2017 (GMT -0400)
Kings Cove on Water | | Change Station

Elev 65 ft 28.86 °N, 81.86 °W | Updated 15 minutes ago

Partly Cloudy
Partly Cloudy
87.1 °F
Feels Like 95 °F
N
2.2
Wind Variable Wind from SSW

Today
High -- | Low -- °F
--% Chance of Precip.
Yesterday
High -- | Low -- °F
Precip. -- in
Pressure 30.03 in
Visibility 10.0 miles
Clouds Few 5000 ft
Few 6000 ft
Scattered Clouds 7500 ft
Heat Index 95 °F
Dew Point 74 °F
Humidity 65%
Rainfall 0.00 in
Snow Depth Not available.
6:59 AM 8:01 PM
Waning Crescent, 1% visible
SPECI KLEE 201926Z 00000KT 10SM FEW050 FEW060 SCT075 33/23 A3003 RMK AO2 RAE04 TSB1856E24 P0000 T03280233
Pressure 30.03 in
Visibility 10.0 miles
Clouds Few 5000 ft
Few 6000 ft
Scattered Clouds 7500 ft
Heat Index 95 °F
Dew Point 74 °F
Humidity 65%
Rainfall 0.00 in
Snow Depth Not available.
6:59 AM 8:01 PM
Waning Crescent, 1% visible
SPECI KLEE 201926Z 00000KT 10SM FEW050 FEW060 SCT075 33/23 A3003 RMK AO2 RAE04 TSB1856E24 P0000 T03280233

Get Severe Weather Alerts

Thanks for signing up!

Be on the lookout for a verification email in your inbox.

You'll start receiving the daily forecast at 6 AM.

×

10-Day Weather Forecast

Almanac

Astronomy

Aug. 20, 2017 Rise Set
Actual Time
Civil Twilight
Nautical Twilight
Astronomical Twilight
Moon
Length of Visible Light
Length of Day
Tomorrow will be .
, % of the Moon is Illuminated

Today's Extremes

State Highs State Lows

Community

WunderPhotos

Category 6

Welcome to Category 6. This is the collective home for Weather Underground's featured writeups by Dr. Jeff Masters (right), Bob Henson (left), Chris Burt, and other regular contributors.

Nearby

Air Quality

  Air Quality AQ Index Pollutant
Not available.

Snow Depth

Station Depth Elevation

Earthquake Activity

City Distance Mag. Time & Date
Minimum magnitude displayed is 2.5.

Coastal Water Temperatures

Place Temperature

Stations

Nearby Weather Stations

Station Location Temp. Windchill Dew Point Humidity Wind Precip. Elev Updated Type
                   

Watches & Warnings

There are currently no watches in effect.